Time;durP1;ratioP1;P1;durP2;ratioP2;P2;SDS_P1;SDS_P2;PMS_P1;PMS_P2;Temp;Humidity;BMP_temperature;BMP_pressure;BME280_temperature;BME280_humidity;BME280_pressure;Samples;Min_cycle;Max_cycle;Signal;HPM_P1;HPM_P2
2022/09/05 00:02:02;;;;;;;0.20;0.20;;;17.70;99.90;;;;;;5102165;28;20187;-80
2022/09/05 00:04:45;;;;;;;0.40;0.40;;;17.60;99.90;;;;;;5091423;28;20215;-80
2022/09/05 00:08:01;;;;;;;0.20;0.20;;;17.70;99.90;;;;;;5096515;28;20267;-80
2022/09/05 00:10:37;;;;;;;0.20;0.20;;;17.80;99.90;;;;;;5067759;28;20207;-80
2022/09/05 00:13:06;;;;;;;0.77;0.40;;;17.80;99.90;;;;;;5102883;28;20181;-80
2022/09/05 00:15:57;;;;;;;0.30;0.30;;;17.90;99.90;;;;;;5105809;28;20227;-80
2022/09/05 00:18:41;;;;;;;0.30;0.20;;;17.80;99.90;;;;;;5086413;28;20230;-81
2022/09/05 00:21:25;;;;;;;0.13;0.13;;;17.80;99.90;;;;;;5083374;28;20728;-80
2022/09/05 00:24:15;;;;;;;0.10;0.10;;;17.90;99.90;;;;;;5084269;28;20602;-80
2022/09/05 00:27:25;;;;;;;0.53;0.53;;;18.00;99.90;;;;;;5080022;28;20230;-80
2022/09/05 00:30:14;;;;;;;0.40;0.13;;;17.80;99.90;;;;;;4986938;28;20231;-80
2022/09/05 00:33:00;;;;;;;0.33;0.33;;;17.70;99.90;;;;;;5099880;28;20674;-80
2022/09/05 00:35:44;;;;;;;0.30;0.30;;;17.70;99.90;;;;;;5088752;28;20246;-80
2022/09/05 00:38:18;;;;;;;0.47;0.40;;;17.80;99.90;;;;;;5095021;28;20247;-80
2022/09/05 00:40:51;;;;;;;0.50;0.37;;;17.70;99.90;;;;;;5088065;28;20249;-80
2022/09/05 00:43:33;;;;;;;0.20;0.20;;;17.60;99.90;;;;;;5084352;28;20202;-80
2022/09/05 00:46:06;;;;;;;0.27;0.27;;;17.60;99.90;;;;;;5079170;28;20175;-80
2022/09/05 00:48:52;;;;;;;0.40;0.40;;;17.40;99.90;;;;;;5100091;28;20522;-80
2022/09/05 00:51:43;;;;;;;0.37;0.37;;;17.30;99.90;;;;;;5084515;28;20209;-80
2022/09/05 00:54:30;;;;;;;0.50;0.50;;;17.20;99.90;;;;;;5087830;28;20284;-80
2022/09/05 00:57:30;;;;;;;0.30;0.30;;;17.10;99.90;;;;;;5088596;28;20266;-80
2022/09/05 01:00:07;;;;;;;0.50;0.50;;;17.10;99.90;;;;;;5076027;28;20201;-80
2022/09/05 01:02:44;;;;;;;0.37;0.37;;;16.90;99.90;;;;;;5081279;28;20201;-80
2022/09/05 01:05:25;;;;;;;0.33;0.33;;;16.90;99.90;;;;;;5084064;28;20183;-80
2022/09/05 01:08:28;;;;;;;0.33;0.33;;;17.00;99.90;;;;;;5079964;28;20582;-80
2022/09/05 01:10:57;;;;;;;0.53;0.33;;;17.00;99.90;;;;;;5075363;28;20200;-80
2022/09/05 01:13:43;;;;;;;0.47;0.47;;;17.10;99.90;;;;;;5078480;28;20192;-80
2022/09/05 01:16:17;;;;;;;0.30;0.30;;;17.10;99.90;;;;;;5087996;28;20735;-80
2022/09/05 01:19:21;;;;;;;0.20;0.20;;;17.20;99.90;;;;;;5082780;28;20199;-80
2022/09/05 01:22:16;;;;;;;0.20;0.20;;;17.00;99.90;;;;;;5074897;28;20214;-80
2022/09/05 01:24:50;;;;;;;0.13;0.13;;;16.80;99.90;;;;;;5075841;28;20189;-80
2022/09/05 01:27:38;;;;;;;0.40;0.40;;;16.70;99.90;;;;;;5082954;28;20180;-80
2022/09/05 01:30:17;;;;;;;0.10;0.10;;;16.70;99.90;;;;;;5075646;28;20507;-80
2022/09/05 01:32:55;;;;;;;0.10;0.10;;;16.60;99.90;;;;;;5083092;28;20237;-80
2022/09/05 01:35:35;;;;;;;0.40;0.40;;;16.60;99.90;;;;;;5104592;28;20543;-80
2022/09/05 01:38:07;;;;;;;0.30;0.30;;;16.60;99.90;;;;;;5100347;28;20180;-80
2022/09/05 01:40:45;;;;;;;0.20;0.20;;;16.50;99.90;;;;;;5089476;28;20294;-80
2022/09/05 01:43:24;;;;;;;0.47;0.47;;;16.40;99.90;;;;;;5085670;28;20216;-80
2022/09/05 01:46:21;;;;;;;0.30;0.30;;;16.40;99.90;;;;;;5077634;28;20228;-80
2022/09/05 01:49:19;;;;;;;0.20;0.20;;;16.40;99.90;;;;;;5075767;28;20187;-80
2022/09/05 01:51:53;;;;;;;0.20;0.20;;;16.50;99.90;;;;;;5078562;28;20214;-80
2022/09/05 01:54:32;;;;;;;0.47;0.20;;;16.70;99.90;;;;;;5084245;28;20185;-80
2022/09/05 01:57:06;;;;;;;0.30;0.30;;;16.90;99.90;;;;;;5077703;28;20196;-80
2022/09/05 01:59:48;;;;;;;0.17;0.17;;;17.00;99.90;;;;;;5089616;28;20252;-80
2022/09/05 02:02:41;;;;;;;0.43;0.43;;;17.10;99.90;;;;;;5082414;28;20185;-80
2022/09/05 02:05:19;;;;;;;2.27;0.27;;;17.10;99.90;;;;;;5073877;28;20173;-80
2022/09/05 02:08:21;;;;;;;0.33;0.33;;;17.10;99.90;;;;;;5079589;28;20182;-80
2022/09/05 02:10:58;;;;;;;0.20;0.20;;;17.10;99.90;;;;;;5091586;28;20257;-80
2022/09/05 02:13:43;;;;;;;0.83;0.83;;;17.00;99.90;;;;;;5082786;28;20662;-80
2022/09/05 02:16:27;;;;;;;0.30;0.30;;;17.10;99.90;;;;;;5090226;28;20291;-80
2022/09/05 02:19:05;;;;;;;0.43;0.43;;;17.20;99.90;;;;;;5081637;28;20185;-80
2022/09/05 02:21:37;;;;;;;0.27;0.27;;;17.30;99.90;;;;;;5078435;28;20293;-80
2022/09/05 02:24:22;;;;;;;0.87;0.87;;;17.30;99.90;;;;;;5088834;28;20193;-80
2022/09/05 02:27:11;;;;;;;0.30;0.30;;;17.30;99.90;;;;;;5078340;28;20204;-80
2022/09/05 02:29:59;;;;;;;0.30;0.30;;;17.20;99.90;;;;;;5051399;28;20199;-80
2022/09/05 02:32:31;;;;;;;0.33;0.30;;;17.20;99.90;;;;;;5095480;28;20185;-80
2022/09/05 02:35:08;;;;;;;1.60;0.47;;;17.20;99.90;;;;;;5096217;28;20171;-80
2022/09/05 02:37:41;;;;;;;0.60;0.60;;;17.10;99.90;;;;;;5102380;28;20171;-80
2022/09/05 02:40:29;;;;;;;1.80;0.40;;;17.10;99.90;;;;;;5089313;28;20283;-80
2022/09/05 02:42:58;;;;;;;0.20;0.20;;;17.20;99.90;;;;;;5083882;28;20205;-80
2022/09/05 02:45:42;;;;;;;0.50;0.43;;;17.20;99.90;;;;;;5085964;28;20180;-80
2022/09/05 02:48:49;;;;;;;0.40;0.40;;;17.20;99.90;;;;;;5082348;28;20184;-80
2022/09/05 02:51:20;;;;;;;0.40;0.40;;;17.20;99.90;;;;;;5021283;28;20205;-80
2022/09/05 02:53:53;;;;;;;0.37;0.37;;;17.30;99.90;;;;;;5082518;28;20213;-80
2022/09/05 02:56:39;;;;;;;0.20;0.20;;;17.30;99.90;;;;;;5082923;28;20184;-81
2022/09/05 02:59:48;;;;;;;0.20;0.20;;;17.40;99.90;;;;;;5076301;28;20173;-80
2022/09/05 03:02:25;;;;;;;0.30;0.30;;;17.50;99.90;;;;;;5087979;28;20194;-80
2022/09/05 03:05:16;;;;;;;0.10;0.10;;;17.40;99.90;;;;;;5082466;28;20192;-80
2022/09/05 03:08:16;;;;;;;0.20;0.20;;;17.40;99.90;;;;;;5083153;28;20173;-80
2022/09/05 03:11:14;;;;;;;0.30;0.30;;;17.40;99.90;;;;;;5086372;28;20204;-81
2022/09/05 03:14:03;;;;;;;0.30;0.30;;;17.50;99.90;;;;;;5051175;28;20619;-80
2022/09/05 03:17:02;;;;;;;0.40;0.40;;;17.40;99.90;;;;;;5094430;28;20180;-80
2022/09/05 03:19:56;;;;;;;0.50;0.50;;;17.40;99.90;;;;;;5095163;28;20225;-80
2022/09/05 03:22:52;;;;;;;0.20;0.20;;;17.30;99.90;;;;;;5089977;28;20659;-80
2022/09/05 03:25:21;;;;;;;0.40;0.40;;;17.30;99.90;;;;;;5091172;28;20326;-80
2022/09/05 03:28:09;;;;;;;0.30;0.30;;;17.30;99.90;;;;;;5091864;28;20178;-80
2022/09/05 03:31:17;;;;;;;0.20;0.20;;;17.00;99.90;;;;;;5082378;28;20261;-80
2022/09/05 03:34:07;;;;;;;0.30;0.30;;;16.90;99.90;;;;;;5095512;28;20186;-80
2022/09/05 03:37:00;;;;;;;0.23;0.23;;;17.00;99.90;;;;;;5088012;28;20211;-80
2022/09/05 03:40:02;;;;;;;0.43;0.40;;;17.00;99.90;;;;;;5086948;28;20181;-80
2022/09/05 03:42:52;;;;;;;0.30;0.30;;;17.10;99.90;;;;;;5085224;28;20183;-80
2022/09/05 03:45:26;;;;;;;0.30;0.30;;;17.10;99.90;;;;;;5084362;28;20173;-80
2022/09/05 03:48:29;;;;;;;0.30;0.30;;;17.00;99.90;;;;;;5083419;28;20231;-80
2022/09/05 03:51:03;;;;;;;0.20;0.20;;;17.10;99.90;;;;;;5093159;28;20209;-80
2022/09/05 03:53:51;;;;;;;0.20;0.20;;;17.10;99.90;;;;;;5089051;28;20241;-80
2022/09/05 03:56:59;;;;;;;0.50;0.50;;;17.10;99.90;;;;;;5091295;28;20524;-80
2022/09/05 03:59:40;;;;;;;0.10;0.10;;;17.10;99.90;;;;;;5087490;28;20573;-80
2022/09/05 04:02:09;;;;;;;0.10;0.10;;;17.10;99.90;;;;;;5085702;28;20199;-80
2022/09/05 04:04:54;;;;;;;0.30;0.23;;;17.10;99.90;;;;;;5081934;28;20187;-80
2022/09/05 04:07:31;;;;;;;0.20;0.20;;;17.00;99.90;;;;;;5084528;28;20176;-80
2022/09/05 04:10:06;;;;;;;0.40;0.30;;;17.00;99.90;;;;;;5090326;28;20203;-80
2022/09/05 04:12:51;;;;;;;0.33;0.33;;;17.00;99.90;;;;;;5102692;28;20656;-80
2022/09/05 04:15:36;;;;;;;0.30;0.30;;;17.00;99.90;;;;;;5105646;27;20876;-80
2022/09/05 04:18:17;;;;;;;0.50;0.50;;;17.00;99.90;;;;;;5091608;28;20177;-80
2022/09/05 04:20:55;;;;;;;0.40;0.40;;;17.00;99.90;;;;;;5082322;28;20195;-80
2022/09/05 04:23:45;;;;;;;0.37;0.37;;;17.00;99.90;;;;;;5097335;28;20195;-80
2022/09/05 04:26:48;;;;;;;0.30;0.30;;;17.00;99.90;;;;;;5091789;28;20183;-80
2022/09/05 04:29:23;;;;;;;0.70;0.60;;;17.00;99.90;;;;;;5091697;28;20181;-80
2022/09/05 04:32:19;;;;;;;0.40;0.40;;;17.10;99.90;;;;;;5076570;28;22127;-80
2022/09/05 04:35:26;;;;;;;0.83;0.40;;;17.00;99.90;;;;;;5091381;28;20172;-80
2022/09/05 04:38:04;;;;;;;0.83;0.40;;;17.00;99.90;;;;;;5104646;28;20192;-80
2022/09/05 04:40:39;;;;;;;0.47;0.47;;;17.00;99.90;;;;;;5093024;28;20333;-80
2022/09/05 04:43:11;;;;;;;1.40;0.70;;;17.00;99.90;;;;;;5076132;28;20208;-80
2022/09/05 04:45:44;;;;;;;0.20;0.20;;;17.00;99.90;;;;;;5086381;28;20184;-80
2022/09/05 04:48:12;;;;;;;0.40;0.40;;;17.00;99.90;;;;;;5084029;28;20186;-80
2022/09/05 04:50:57;;;;;;;0.60;0.47;;;17.00;99.90;;;;;;5083364;28;20207;-80
2022/09/05 04:53:40;;;;;;;0.33;0.33;;;17.00;99.90;;;;;;5088027;28;20203;-80
2022/09/05 04:56:18;;;;;;;0.30;0.30;;;17.10;99.90;;;;;;5082905;28;20318;-80
2022/09/05 04:58:55;;;;;;;0.30;0.30;;;17.10;99.90;;;;;;5081825;28;20310;-80
2022/09/05 05:01:34;;;;;;;0.77;0.40;;;17.10;99.90;;;;;;5089192;28;20295;-80
2022/09/05 05:04:09;;;;;;;0.27;0.27;;;17.00;99.90;;;;;;5084762;28;20197;-80
2022/09/05 05:06:43;;;;;;;0.40;0.40;;;17.00;99.90;;;;;;5088201;28;20206;-80
2022/09/05 05:09:27;;;;;;;0.60;0.60;;;17.00;99.90;;;;;;5093912;28;20478;-79
2022/09/05 05:11:55;;;;;;;0.63;0.63;;;16.90;99.90;;;;;;5084445;28;20204;-79
2022/09/05 05:14:30;;;;;;;0.50;0.43;;;16.90;99.90;;;;;;5085483;28;20669;-79
2022/09/05 05:17:13;;;;;;;0.40;0.40;;;16.80;99.90;;;;;;5082999;28;20191;-80
2022/09/05 05:19:43;;;;;;;0.67;0.63;;;16.70;99.90;;;;;;5084173;28;21236;-82
2022/09/05 05:22:15;;;;;;;0.53;0.53;;;16.70;99.90;;;;;;5091910;28;20231;-80
2022/09/05 05:24:45;;;;;;;0.50;0.50;;;16.70;99.90;;;;;;5086119;28;20247;-80
2022/09/05 05:27:28;;;;;;;1.27;0.50;;;16.70;99.90;;;;;;5081567;28;20212;-80
2022/09/05 05:30:00;;;;;;;0.40;0.40;;;16.70;99.90;;;;;;5085248;28;20212;-80
2022/09/05 05:32:45;;;;;;;0.30;0.30;;;16.80;99.90;;;;;;5086024;28;20941;-80
2022/09/05 05:35:18;;;;;;;0.47;0.47;;;16.60;99.90;;;;;;5082772;28;20175;-79
2022/09/05 05:37:53;;;;;;;0.60;0.60;;;16.70;99.90;;;;;;5088417;28;20332;-79
2022/09/05 05:40:26;;;;;;;0.37;0.37;;;16.70;99.90;;;;;;5084403;28;20211;-80
2022/09/05 05:42:52;;;;;;;0.50;0.50;;;16.80;99.90;;;;;;5088227;28;20291;-79
2022/09/05 05:45:20;;;;;;;0.67;0.40;;;16.90;99.90;;;;;;5083702;28;20191;-80
2022/09/05 05:47:52;;;;;;;0.20;0.20;;;17.00;99.90;;;;;;5081928;28;20183;-79
2022/09/05 05:50:57;;;;;;;0.77;0.40;;;17.10;99.90;;;;;;5090718;28;20227;-80
2022/09/05 05:53:45;;;;;;;0.40;0.40;;;17.30;99.90;;;;;;5068232;28;20710;-79
2022/09/05 05:56:40;;;;;;;0.37;0.37;;;17.30;99.90;;;;;;5086740;28;20218;-79
2022/09/05 05:59:31;;;;;;;0.40;0.40;;;17.40;99.90;;;;;;5071720;28;20207;-79
2022/09/05 06:02:05;;;;;;;0.30;0.30;;;17.50;99.90;;;;;;5079993;28;20646;-80
2022/09/05 06:05:22;;;;;;;0.50;0.50;;;17.70;99.90;;;;;;5082626;28;20201;-80
2022/09/05 06:08:06;;;;;;;1.03;0.60;;;17.90;99.90;;;;;;5084710;28;20187;-80
2022/09/05 06:11:06;;;;;;;0.40;0.40;;;18.00;99.90;;;;;;5089873;28;20660;-80
2022/09/05 06:13:34;;;;;;;0.40;0.40;;;18.20;99.90;;;;;;5087926;28;20179;-80
2022/09/05 06:16:33;;;;;;;2.00;0.80;;;18.30;99.90;;;;;;5089668;28;20179;-79
2022/09/05 06:19:24;;;;;;;0.80;0.70;;;18.20;99.90;;;;;;5082523;28;20177;-79
2022/09/05 06:22:07;;;;;;;1.10;0.67;;;18.00;99.90;;;;;;5088866;28;20852;-80
2022/09/05 06:25:06;;;;;;;0.50;0.50;;;18.20;99.90;;;;;;5077062;28;20192;-81
2022/09/05 06:27:56;;;;;;;0.37;0.37;;;18.40;99.90;;;;;;5090675;28;20266;-79
2022/09/05 06:30:22;;;;;;;0.50;0.50;;;18.70;99.90;;;;;;5083416;28;20241;-79
2022/09/05 06:33:15;;;;;;;0.57;0.43;;;19.00;99.90;;;;;;5089240;28;20176;-79
2022/09/05 06:35:56;;;;;;;0.43;0.40;;;19.20;99.90;;;;;;5077067;28;20183;-79
2022/09/05 06:38:45;;;;;;;0.70;0.40;;;19.60;99.90;;;;;;5084830;28;20184;-81
2022/09/05 06:41:41;;;;;;;0.40;0.40;;;19.90;99.90;;;;;;5066327;28;20219;-80
2022/09/05 06:44:34;;;;;;;0.30;0.30;;;20.00;99.90;;;;;;5079751;28;20201;-80
2022/09/05 06:47:05;;;;;;;0.30;0.30;;;20.30;99.90;;;;;;5082495;28;20584;-80
2022/09/05 06:49:41;;;;;;;0.63;0.63;;;20.60;99.90;;;;;;5103177;28;20276;-80
2022/09/05 06:52:29;;;;;;;0.20;0.20;;;20.80;99.90;;;;;;5083729;28;20255;-80
2022/09/05 06:55:25;;;;;;;0.40;0.40;;;21.10;99.90;;;;;;5075293;28;20658;-80
2022/09/05 06:58:20;;;;;;;0.43;0.43;;;21.30;99.90;;;;;;5079016;28;20215;-80
2022/09/05 07:00:55;;;;;;;0.50;0.50;;;21.50;99.90;;;;;;5082978;28;20716;-80
2022/09/05 07:03:36;;;;;;;0.40;0.40;;;21.60;99.90;;;;;;5086524;28;20207;-80
2022/09/05 07:06:05;;;;;;;0.90;0.20;;;21.70;99.90;;;;;;5077212;28;20723;-80
2022/09/05 07:08:44;;;;;;;0.37;0.37;;;21.80;99.90;;;;;;5081862;28;20605;-80
2022/09/05 07:11:35;;;;;;;0.40;0.40;;;21.90;99.90;;;;;;5076454;28;20197;-80
2022/09/05 07:14:10;;;;;;;0.50;0.50;;;22.10;99.90;;;;;;5078530;28;20177;-79
2022/09/05 07:16:48;;;;;;;0.87;0.40;;;22.10;99.90;;;;;;5079563;28;20199;-80
2022/09/05 07:19:54;;;;;;;0.20;0.20;;;22.30;99.90;;;;;;5089468;28;20180;-80
2022/09/05 07:22:33;;;;;;;0.60;0.60;;;22.40;99.90;;;;;;5006017;28;20669;-80
2022/09/05 07:25:08;;;;;;;0.83;0.83;;;22.60;99.90;;;;;;5079447;28;20245;-80
2022/09/05 07:27:36;;;;;;;0.90;0.90;;;22.40;99.90;;;;;;5086319;28;20522;-80
2022/09/05 07:30:03;;;;;;;0.67;0.67;;;22.40;99.90;;;;;;5088646;28;20204;-80
2022/09/05 07:32:34;;;;;;;0.60;0.60;;;22.40;99.90;;;;;;5090670;28;20173;-80
2022/09/05 07:35:03;;;;;;;0.50;0.50;;;22.50;99.90;;;;;;5089481;28;20181;-80
2022/09/05 07:37:40;;;;;;;0.30;0.30;;;22.60;99.90;;;;;;5089477;28;20171;-80
2022/09/05 07:40:12;;;;;;;0.50;0.50;;;22.80;99.90;;;;;;5090594;28;20543;-80
2022/09/05 07:42:52;;;;;;;0.23;0.23;;;22.90;99.90;;;;;;5079425;28;20252;-80
2022/09/05 07:45:23;;;;;;;2.30;0.90;;;23.10;99.90;;;;;;5088607;28;20172;-80
2022/09/05 07:47:57;;;;;;;1.07;0.97;;;23.20;99.90;;;;;;5089291;28;20177;-80
2022/09/05 07:50:24;;;;;;;0.70;0.70;;;23.50;99.90;;;;;;5090977;28;20220;-80
2022/09/05 07:52:49;;;;;;;0.80;0.80;;;23.50;99.90;;;;;;5085800;28;20170;-80
2022/09/05 07:55:29;;;;;;;0.20;0.20;;;23.70;99.90;;;;;;5091304;28;20219;-80
2022/09/05 07:57:59;;;;;;;8.27;1.63;;;23.70;99.90;;;;;;5078826;28;20212;-80
2022/09/05 08:00:27;;;;;;;0.33;0.33;;;23.00;99.90;;;;;;5083718;28;20262;-80
2022/09/05 08:02:53;;;;;;;0.20;0.20;;;23.50;99.90;;;;;;5087488;28;20192;-80
2022/09/05 08:05:22;;;;;;;0.80;0.80;;;23.50;99.90;;;;;;5089999;28;20582;-80
2022/09/05 08:07:52;;;;;;;1.60;0.90;;;23.90;99.90;;;;;;5086211;28;20176;-80
2022/09/05 08:10:32;;;;;;;1.13;1.03;;;24.10;99.90;;;;;;5085494;28;20265;-80
2022/09/05 08:13:17;;;;;;;0.50;0.43;;;24.20;99.90;;;;;;5084750;28;20658;-80
2022/09/05 08:15:52;;;;;;;0.83;0.50;;;24.10;99.90;;;;;;5077988;28;20234;-80
2022/09/05 08:18:22;;;;;;;0.83;0.77;;;24.50;99.90;;;;;;5090511;28;20222;-80
2022/09/05 08:21:09;;;;;;;0.40;0.40;;;24.50;99.90;;;;;;5088223;28;20199;-80
2022/09/05 08:23:56;;;;;;;0.40;0.40;;;24.60;99.90;;;;;;5090100;28;20199;-80
2022/09/05 08:26:28;;;;;;;0.30;0.30;;;24.50;99.90;;;;;;5074842;28;20178;-79
2022/09/05 08:29:20;;;;;;;0.60;0.60;;;24.80;99.90;;;;;;5076796;28;20443;-81
2022/09/05 08:31:51;;;;;;;0.80;0.40;;;25.20;99.90;;;;;;5065468;28;20208;-81
2022/09/05 08:34:20;;;;;;;0.20;0.20;;;25.50;99.90;;;;;;5089630;28;20176;-80
2022/09/05 08:36:48;;;;;;;0.43;0.43;;;25.40;99.90;;;;;;5074588;28;20208;-80
2022/09/05 08:39:24;;;;;;;0.47;0.47;;;25.50;99.90;;;;;;5081805;28;20180;-80
2022/09/05 08:42:22;;;;;;;0.37;0.30;;;25.30;99.90;;;;;;5084054;28;20200;-80
2022/09/05 08:45:10;;;;;;;0.30;0.30;;;24.90;99.90;;;;;;5100374;27;20197;-80
2022/09/05 08:48:02;;;;;;;1.60;0.40;;;24.90;99.90;;;;;;5074554;28;20179;-80
2022/09/05 08:51:01;;;;;;;0.23;0.23;;;24.90;99.90;;;;;;5084748;28;21754;-80
2022/09/05 08:53:56;;;;;;;0.23;0.23;;;25.50;99.90;;;;;;5082807;28;20230;-80
2022/09/05 08:56:30;;;;;;;0.40;0.40;;;25.80;99.90;;;;;;5078434;28;20220;-80
2022/09/05 08:58:58;;;;;;;0.83;0.83;;;25.70;99.90;;;;;;5077289;28;20178;-80
2022/09/05 09:02:02;;;;;;;0.83;0.60;;;25.90;99.90;;;;;;5079016;28;20213;-80
2022/09/05 09:04:38;;;;;;;0.40;0.40;;;25.60;99.90;;;;;;5086068;28;20665;-79
2022/09/05 09:07:28;;;;;;;0.23;0.23;;;26.00;99.90;;;;;;5082114;28;20215;-79
2022/09/05 09:10:10;;;;;;;1.40;1.13;;;26.20;99.90;;;;;;5076217;28;20197;-79
2022/09/05 09:13:03;;;;;;;0.40;0.40;;;26.70;99.90;;;;;;5085471;28;20168;-81
2022/09/05 09:15:44;;;;;;;0.20;0.20;;;26.70;99.90;;;;;;5083356;28;20172;-80
2022/09/05 09:18:13;;;;;;;0.37;0.30;;;27.00;99.90;;;;;;5093854;28;20649;-80
2022/09/05 09:20:42;;;;;;;0.50;0.50;;;27.00;99.90;;;;;;5088473;28;20207;-80
2022/09/05 09:23:29;;;;;;;3.70;3.40;;;26.70;99.90;;;;;;5084768;28;20204;-80
2022/09/05 09:26:07;;;;;;;0.20;0.20;;;26.80;99.90;;;;;;5093506;28;20173;-80
2022/09/05 09:28:44;;;;;;;0.20;0.20;;;27.20;99.90;;;;;;5088200;28;20243;-81
2022/09/05 09:31:36;;;;;;;0.97;0.47;;;27.30;99.90;;;;;;5076373;28;20681;-82
2022/09/05 09:34:25;;;;;;;0.50;0.50;;;27.50;99.90;;;;;;5086450;28;20173;-80
2022/09/05 09:37:19;;;;;;;0.60;0.60;;;27.60;99.90;;;;;;5081463;28;20173;-80
2022/09/05 09:40:22;;;;;;;1.80;0.50;;;28.00;99.90;;;;;;5076335;28;20187;-80
2022/09/05 09:42:53;;;;;;;0.30;0.30;;;28.20;99.90;;;;;;5085401;28;20262;-80
2022/09/05 09:45:34;;;;;;;4.57;0.60;;;28.30;99.90;;;;;;5076732;28;21006;-80
2022/09/05 09:48:19;;;;;;;0.32;0.32;;;28.20;99.90;;;;;;5075590;28;20751;-80
2022/09/05 09:51:02;;;;;;;0.40;0.40;;;28.40;99.90;;;;;;5076506;28;20200;-80
2022/09/05 09:53:56;;;;;;;3.50;0.38;;;28.60;99.90;;;;;;5088445;28;20212;-80
2022/09/05 09:56:54;;;;;;;0.60;0.47;;;28.50;99.90;;;;;;5084198;28;20180;-80
2022/09/05 09:59:41;;;;;;;0.30;0.30;;;28.70;99.90;;;;;;5074252;28;20666;-80
2022/09/05 10:02:33;;;;;;;0.50;0.50;;;28.70;99.90;;;;;;5078107;28;20247;-80
2022/09/05 10:05:20;;;;;;;0.50;0.50;;;28.40;99.90;;;;;;5083369;28;20177;-80
2022/09/05 10:08:33;;;;;;;0.82;0.28;;;28.50;99.90;;;;;;5080069;28;20395;-80
2022/09/05 10:12:01;;;;;;;0.30;0.30;;;28.20;99.90;;;;;;5038413;28;20205;-80
2022/09/05 10:14:38;;;;;;;0.30;0.30;;;28.40;99.90;;;;;;4991000;28;20260;-80
2022/09/05 10:17:33;;;;;;;0.40;0.40;;;28.80;99.90;;;;;;5006484;28;20178;-80
2022/09/05 10:19:58;;;;;;;0.70;0.50;;;28.90;99.90;;;;;;5068493;28;20220;-80
2022/09/05 10:23:12;;;;;;;0.67;0.60;;;28.30;99.90;;;;;;5077372;28;20184;-80
2022/09/05 10:26:11;;;;;;;0.45;0.45;;;28.40;99.90;;;;;;5063782;28;20670;-81
2022/09/05 10:29:01;;;;;;;0.52;0.30;;;28.50;99.90;;;;;;5079264;28;20184;-80
2022/09/05 10:32:05;;;;;;;0.50;0.50;;;28.60;99.90;;;;;;5076296;28;20213;-80
2022/09/05 10:34:55;;;;;;;0.50;0.50;;;28.50;99.90;;;;;;5079809;28;22184;-80
2022/09/05 10:37:28;;;;;;;0.28;0.28;;;28.90;99.90;;;;;;5089613;28;20260;-79
2022/09/05 10:39:56;;;;;;;0.30;0.30;;;28.90;99.90;;;;;;5074524;28;20693;-79
2022/09/05 10:42:33;;;;;;;0.37;0.33;;;29.10;99.90;;;;;;5082148;28;20229;-79
2022/09/05 10:45:02;;;;;;;0.70;0.50;;;28.60;99.90;;;;;;5076083;28;20196;-79
2022/09/05 10:47:52;;;;;;;0.63;0.63;;;28.90;99.90;;;;;;5082221;28;20273;-79
2022/09/05 10:50:26;;;;;;;1.20;0.68;;;29.10;99.90;;;;;;5088175;28;21170;-79
2022/09/05 10:52:58;;;;;;;0.22;0.22;;;29.40;99.90;;;;;;5082432;28;20176;-79
2022/09/05 10:55:34;;;;;;;0.40;0.40;;;29.50;99.90;;;;;;5086316;28;20189;-79
2022/09/05 10:58:22;;;;;;;0.40;0.40;;;29.30;99.90;;;;;;5085080;28;20169;-79
2022/09/05 11:01:10;;;;;;;0.40;0.40;;;29.10;99.90;;;;;;5083122;28;20220;-79
2022/09/05 11:04:03;;;;;;;1.05;0.88;;;28.70;99.90;;;;;;5086913;28;20189;-79
2022/09/05 11:06:41;;;;;;;0.50;0.50;;;28.20;99.90;;;;;;5066924;28;20790;-79
2022/09/05 11:09:31;;;;;;;0.50;0.50;;;28.70;99.90;;;;;;5083584;28;20180;-79
2022/09/05 11:12:35;;;;;;;1.45;0.73;;;29.40;99.90;;;;;;5090272;28;20262;-79
2022/09/05 11:15:28;;;;;;;0.75;0.47;;;29.40;99.90;;;;;;5057560;28;20192;-79
2022/09/05 11:18:02;;;;;;;0.43;0.43;;;29.30;99.90;;;;;;5077457;28;21506;-79
2022/09/05 11:20:56;;;;;;;1.27;1.17;;;29.80;99.90;;;;;;5089830;28;20257;-79
2022/09/05 11:23:34;;;;;;;0.60;0.28;;;29.50;99.90;;;;;;5085628;28;20365;-79
2022/09/05 11:26:06;;;;;;;1.35;0.47;;;29.70;99.90;;;;;;5079394;28;20176;-79
2022/09/05 11:28:39;;;;;;;0.40;0.40;;;29.30;99.90;;;;;;5089019;28;20168;-79
2022/09/05 11:31:11;;;;;;;0.20;0.20;;;29.40;99.90;;;;;;5087202;28;20211;-79
2022/09/05 11:33:59;;;;;;;0.43;0.43;;;29.90;99.90;;;;;;5089072;28;20188;-79
2022/09/05 11:36:30;;;;;;;0.30;0.30;;;30.40;99.90;;;;;;5092052;28;20180;-81
2022/09/05 11:39:16;;;;;;;0.40;0.40;;;30.60;99.90;;;;;;5087860;28;20176;-81
2022/09/05 11:42:17;;;;;;;0.50;0.45;;;30.70;99.90;;;;;;5089297;28;20256;-78
2022/09/05 11:45:12;;;;;;;0.35;0.35;;;30.80;99.90;;;;;;5058133;28;20314;-79
2022/09/05 11:47:46;;;;;;;0.30;0.22;;;30.80;99.90;;;;;;5085649;28;20176;-79
2022/09/05 11:50:30;;;;;;;0.90;0.40;;;31.00;99.90;;;;;;5090397;28;20697;-79
2022/09/05 11:53:33;;;;;;;0.52;0.52;;;31.00;99.90;;;;;;5089067;28;20176;-78
2022/09/05 11:56:37;;;;;;;0.63;0.63;;;30.00;99.90;;;;;;5087286;28;20169;-79
2022/09/05 11:59:24;;;;;;;2.20;1.45;;;30.10;99.90;;;;;;5011220;28;20178;-79
2022/09/05 12:02:22;;;;;;;0.20;0.20;;;30.30;99.90;;;;;;5010139;28;20325;-79
2022/09/05 12:05:16;;;;;;;0.50;0.50;;;30.90;99.90;;;;;;5075167;28;20220;-79
2022/09/05 12:08:04;;;;;;;1.52;0.50;;;31.10;99.90;;;;;;5086114;28;20180;-79
2022/09/05 12:10:51;;;;;;;0.73;0.73;;;31.00;99.90;;;;;;5089691;28;20886;-78
2022/09/05 12:13:49;;;;;;;0.50;0.50;;;31.10;99.90;;;;;;5087133;28;20688;-79
2022/09/05 12:16:34;;;;;;;0.40;0.40;;;31.10;99.90;;;;;;5085754;28;20180;-79
2022/09/05 12:19:11;;;;;;;0.77;0.43;;;31.20;99.90;;;;;;5087130;28;20209;-79
2022/09/05 12:22:02;;;;;;;0.30;0.30;;;31.30;99.90;;;;;;5085569;28;21539;-79
2022/09/05 12:24:53;;;;;;;0.40;0.40;;;31.30;99.90;;;;;;5088519;28;20563;-79
2022/09/05 12:27:24;;;;;;;0.82;0.73;;;31.10;99.90;;;;;;5089378;28;20169;-78
2022/09/05 12:30:04;;;;;;;0.40;0.40;;;31.00;99.90;;;;;;5086513;28;20165;-79
2022/09/05 12:32:32;;;;;;;0.73;0.40;;;30.80;99.90;;;;;;5083803;28;20255;-79
2022/09/05 12:35:00;;;;;;;0.63;0.63;;;31.00;99.90;;;;;;5087620;28;20180;-79
2022/09/05 12:37:29;;;;;;;0.38;0.38;;;31.00;99.90;;;;;;5087247;28;20195;-80
2022/09/05 12:40:08;;;;;;;0.50;0.50;;;31.10;99.90;;;;;;5088927;28;20180;-80
2022/09/05 12:42:51;;;;;;;0.30;0.30;;;31.40;99.90;;;;;;5088871;28;20558;-79
2022/09/05 12:45:46;;;;;;;0.50;0.43;;;31.30;99.90;;;;;;5087076;28;20204;-80
2022/09/05 12:48:21;;;;;;;0.30;0.30;;;31.50;99.90;;;;;;5084120;28;20197;-82
2022/09/05 12:51:10;;;;;;;0.35;0.35;;;31.50;99.90;;;;;;5083796;28;20227;-80
2022/09/05 12:53:46;;;;;;;0.32;0.30;;;31.10;99.90;;;;;;5088139;28;20234;-79
2022/09/05 12:56:21;;;;;;;1.17;0.50;;;31.20;99.90;;;;;;5090043;28;20676;-79
2022/09/05 12:58:51;;;;;;;0.60;0.60;;;31.40;99.90;;;;;;5092722;28;20180;-82
2022/09/05 13:01:22;;;;;;;0.73;0.60;;;31.50;99.90;;;;;;5089954;28;20210;-80
2022/09/05 13:03:55;;;;;;;0.30;0.30;;;31.50;99.90;;;;;;5089687;28;20208;-80
2022/09/05 13:06:37;;;;;;;0.45;0.45;;;31.60;99.90;;;;;;5103349;28;20537;-79
2022/09/05 13:09:15;;;;;;;0.50;0.50;;;31.80;99.90;;;;;;5086957;28;20208;-80
2022/09/05 13:12:03;;;;;;;0.85;0.77;;;31.70;99.90;;;;;;5085180;28;20200;-79
2022/09/05 13:14:31;;;;;;;0.40;0.40;;;31.70;99.90;;;;;;5086889;28;20188;-79
2022/09/05 13:17:00;;;;;;;1.60;0.45;;;31.80;99.90;;;;;;5088902;28;20184;-79
2022/09/05 13:19:31;;;;;;;0.30;0.30;;;31.70;99.90;;;;;;5084945;28;20275;-79
2022/09/05 13:21:59;;;;;;;0.40;0.40;;;31.70;99.90;;;;;;5086543;28;20211;-79
2022/09/05 13:24:31;;;;;;;0.63;0.63;;;31.70;99.90;;;;;;5085481;28;20204;-79
2022/09/05 13:27:25;;;;;;;1.85;0.40;;;31.70;99.90;;;;;;5087608;28;20522;-79
2022/09/05 13:29:57;;;;;;;0.25;0.25;;;31.80;99.90;;;;;;5086092;28;20185;-79
2022/09/05 13:32:30;;;;;;;0.40;0.40;;;31.70;99.90;;;;;;5085080;28;20199;-79
2022/09/05 13:35:05;;;;;;;0.77;0.60;;;31.60;99.90;;;;;;5085131;28;20191;-79
2022/09/05 13:37:55;;;;;;;0.63;0.63;;;31.50;99.90;;;;;;5087319;28;20179;-79
2022/09/05 13:40:25;;;;;;;0.30;0.30;;;31.30;99.90;;;;;;5081341;28;20423;-79
2022/09/05 13:43:03;;;;;;;2.17;0.63;;;31.10;99.90;;;;;;5085580;28;20188;-79
2022/09/05 13:45:30;;;;;;;0.43;0.43;;;31.20;99.90;;;;;;5085538;28;20270;-79
2022/09/05 13:48:30;;;;;;;0.38;0.38;;;31.40;99.90;;;;;;5087376;28;20591;-79
2022/09/05 13:51:17;;;;;;;0.40;0.38;;;31.50;99.90;;;;;;5088349;28;20234;-80
2022/09/05 13:53:52;;;;;;;0.30;0.30;;;31.70;99.90;;;;;;5087695;28;20199;-79
2022/09/05 13:56:24;;;;;;;0.30;0.30;;;31.70;99.90;;;;;;5087145;28;20262;-80
2022/09/05 13:59:00;;;;;;;0.70;0.70;;;31.70;99.90;;;;;;5086123;28;20237;-79
2022/09/05 14:01:55;;;;;;;0.30;0.30;;;31.70;99.90;;;;;;5086610;28;20195;-79
2022/09/05 14:04:29;;;;;;;0.30;0.30;;;31.70;99.90;;;;;;5084819;28;21207;-78
2022/09/05 14:07:15;;;;;;;0.40;0.40;;;31.70;99.90;;;;;;5087843;28;20191;-79
2022/09/05 14:10:09;;;;;;;0.50;0.50;;;31.70;99.90;;;;;;5082613;28;20169;-79